createdAt,value
2023-02-03T00:00:00.037Z,4.87
2023-02-03T00:02:02.237Z,9.33
2023-02-03T00:04:04.529Z,8.57
2023-02-03T00:06:06.854Z,3.23
2023-02-03T00:08:09.561Z,6.53
2023-02-03T00:10:11.742Z,3.20
2023-02-03T00:12:14.406Z,3.87
2023-02-03T00:14:17.337Z,6.20
2023-02-03T00:16:19.477Z,2.63
2023-02-03T00:18:21.608Z,15.23
2023-02-03T00:20:23.895Z,3.80
2023-02-03T00:22:26.078Z,3.53
2023-02-03T00:24:28.246Z,5.50
2023-02-03T00:26:30.425Z,4.13
2023-02-03T00:28:32.519Z,6.57
2023-02-03T00:30:35.929Z,3.00
2023-02-03T00:32:38.572Z,5.57
2023-02-03T00:34:40.899Z,4.77
2023-02-03T00:36:43.197Z,8.63
2023-02-03T00:38:45.421Z,4.83
2023-02-03T00:40:54.260Z,8.13
2023-02-03T00:42:56.415Z,6.17
2023-02-03T00:44:58.519Z,6.80
2023-02-03T00:47:00.796Z,3.87
2023-02-03T00:49:04.795Z,3.90
2023-02-03T00:51:07.240Z,5.27
2023-02-03T00:53:09.530Z,3.60
2023-02-03T00:55:11.774Z,4.33
2023-02-03T00:57:13.857Z,3.50
2023-02-03T00:59:16.054Z,7.97
2023-02-03T01:01:18.293Z,4.10
2023-02-03T01:03:20.464Z,4.80
2023-02-03T01:05:23.450Z,5.23
2023-02-03T01:07:25.536Z,4.47
2023-02-03T01:09:27.809Z,3.53
2023-02-03T01:11:30.011Z,3.43
2023-02-03T01:13:32.154Z,6.00
2023-02-03T01:15:34.417Z,8.33
2023-02-03T01:17:36.561Z,6.10
2023-02-03T01:19:38.690Z,4.97
2023-02-03T01:21:40.834Z,3.77
2023-02-03T01:23:43.407Z,4.10
2023-02-03T01:25:49.379Z,8.60
2023-02-03T01:27:51.506Z,7.00
2023-02-03T01:29:53.678Z,4.67
2023-02-03T01:31:55.920Z,4.90
2023-02-03T01:33:58.807Z,4.97
2023-02-03T01:36:01.441Z,5.80
2023-02-03T01:38:05.109Z,8.67
2023-02-03T01:40:08.105Z,6.20
2023-02-03T01:42:14.416Z,6.13
2023-02-03T01:44:40.079Z,7.20
2023-02-03T01:46:48.896Z,7.33
2023-02-03T01:48:52.243Z,8.03
2023-02-03T01:50:54.926Z,6.10
2023-02-03T01:53:01.536Z,5.87
2023-02-03T01:55:06.174Z,7.27
2023-02-03T01:57:25.015Z,7.93
2023-02-03T01:59:27.673Z,8.30
2023-02-03T02:01:32.139Z,6.57
2023-02-03T02:03:49.085Z,7.77
2023-02-03T02:05:56.594Z,6.40
2023-02-03T02:08:00.334Z,9.17
2023-02-03T02:10:04.369Z,6.60
2023-02-03T02:12:06.610Z,6.87
2023-02-03T02:14:10.738Z,7.40
2023-02-03T02:16:19.771Z,8.77
2023-02-03T02:18:44.942Z,8.63
2023-02-03T02:21:15.522Z,7.57
2023-02-03T02:23:36.653Z,6.33
2023-02-03T02:26:28.970Z,8.27
2023-02-03T02:29:05.157Z,6.57
2023-02-03T02:31:29.107Z,9.40
2023-02-03T02:33:49.546Z,5.70
2023-02-03T02:36:10.221Z,8.63
2023-02-03T02:38:30.616Z,7.30
2023-02-03T02:40:41.689Z,9.27
2023-02-03T02:42:53.660Z,7.37
2023-02-03T02:45:10.925Z,8.67
2023-02-03T02:47:20.914Z,7.60
2023-02-03T02:49:42.660Z,8.10
2023-02-03T02:51:48.544Z,7.67
2023-02-03T02:53:56.131Z,8.53
2023-02-03T02:55:59.517Z,13.93
2023-02-03T02:58:06.283Z,9.20
2023-02-03T03:00:09.309Z,11.10
2023-02-03T03:02:12.093Z,12.57
2023-02-03T03:04:16.726Z,10.17
2023-02-03T03:06:23.313Z,10.70
2023-02-03T03:08:41.336Z,12.10
2023-02-03T03:10:46.835Z,13.87
2023-02-03T03:12:53.741Z,11.80
2023-02-03T03:15:01.296Z,16.20
2023-02-03T03:17:06.723Z,14.00
2023-02-03T03:19:11.617Z,19.33
2023-02-03T03:21:18.210Z,14.00
2023-02-03T03:23:27.226Z,20.17
2023-02-03T03:25:34.812Z,18.27
2023-02-03T03:27:40.258Z,16.70
2023-02-03T03:29:49.884Z,20.83
2023-02-03T03:31:52.021Z,19.40
2023-02-03T03:33:55.081Z,16.60
2023-02-03T03:36:05.095Z,18.93
2023-02-03T03:38:17.474Z,19.90
2023-02-03T03:40:41.886Z,18.43
2023-02-03T03:42:47.190Z,15.97
2023-02-03T03:44:58.194Z,18.10
2023-02-03T03:47:44.040Z,17.40
2023-02-03T03:49:47.140Z,20.30
2023-02-03T03:51:53.280Z,21.93
2023-02-03T03:53:57.078Z,20.77
2023-02-03T03:56:00.950Z,20.40
2023-02-03T03:58:08.747Z,22.00
2023-02-03T04:00:13.616Z,26.03
2023-02-03T04:02:18.252Z,24.77
2023-02-03T04:04:21.471Z,24.10
2023-02-03T04:06:23.874Z,22.93
2023-02-03T04:08:26.052Z,21.10
2023-02-03T04:10:32.030Z,21.97
2023-02-03T04:12:34.174Z,21.63
2023-02-03T04:14:40.875Z,22.07
2023-02-03T04:16:43.018Z,20.53
2023-02-03T04:18:45.326Z,24.87
2023-02-03T04:20:47.507Z,23.07
2023-02-03T04:22:49.985Z,23.40
2023-02-03T04:24:52.062Z,24.77
2023-02-03T04:26:54.215Z,24.30
2023-02-03T04:28:56.319Z,29.17
2023-02-03T04:31:01.228Z,23.67
2023-02-03T04:33:03.482Z,26.90
2023-02-03T04:35:07.139Z,24.47
2023-02-03T04:37:09.339Z,33.47
2023-02-03T04:39:11.621Z,26.20
2023-02-03T04:41:13.765Z,23.87
2023-02-03T04:43:17.105Z,26.57
2023-02-03T04:45:19.233Z,26.20
2023-02-03T04:47:21.369Z,23.13
2023-02-03T04:49:23.453Z,24.87
2023-02-03T04:51:25.572Z,27.00
2023-02-03T04:53:27.691Z,25.03
2023-02-03T04:55:29.973Z,25.73
2023-02-03T04:57:32.077Z,27.50
2023-02-03T04:59:34.280Z,21.13
2023-02-03T05:01:36.369Z,23.70
2023-02-03T05:03:38.599Z,19.90
2023-02-03T05:05:40.788Z,25.47
2023-02-03T05:07:43.117Z,21.13
2023-02-03T05:09:45.219Z,18.27
2023-02-03T05:11:47.381Z,18.77
2023-02-03T05:13:49.553Z,22.20
2023-02-03T05:15:51.792Z,17.03
2023-02-03T05:17:55.156Z,22.17
2023-02-03T05:19:57.301Z,16.10
2023-02-03T05:21:59.440Z,17.00
2023-02-03T05:24:03.290Z,21.70
2023-02-03T05:26:05.605Z,16.67
2023-02-03T05:28:13.374Z,18.57
2023-02-03T05:30:15.530Z,15.43
2023-02-03T05:32:17.631Z,17.00
2023-02-03T05:34:19.927Z,16.87
2023-02-03T05:36:25.183Z,15.37
2023-02-03T05:38:27.408Z,15.10
2023-02-03T05:40:48.572Z,16.40
2023-02-03T05:42:50.741Z,14.60
2023-02-03T05:44:52.856Z,15.77
2023-02-03T05:46:58.127Z,13.80
2023-02-03T05:49:00.266Z,15.57
2023-02-03T05:51:02.505Z,19.60
2023-02-03T05:53:05.831Z,15.17
2023-02-03T05:55:08.049Z,13.93
2023-02-03T05:57:10.345Z,20.03
2023-02-03T05:59:12.459Z,21.87
2023-02-03T06:01:14.696Z,16.97
2023-02-03T06:03:16.877Z,15.57
2023-02-03T06:05:19.579Z,16.07
2023-02-03T06:07:21.662Z,17.37
2023-02-03T06:09:24.185Z,16.53
2023-02-03T06:11:26.353Z,16.47
2023-02-03T06:13:28.847Z,16.37
2023-02-03T06:15:31.054Z,18.27
2023-02-03T06:17:33.177Z,17.43
2023-02-03T06:19:35.381Z,18.37
2023-02-03T06:21:37.481Z,17.80
2023-02-03T06:23:39.643Z,19.03
2023-02-03T06:25:41.817Z,16.80
2023-02-03T06:27:44.015Z,14.60
2023-02-03T06:29:46.157Z,16.67
2023-02-03T06:31:48.591Z,14.60
2023-02-03T06:33:50.966Z,14.13
2023-02-03T06:35:54.492Z,21.17
2023-02-03T06:37:56.688Z,13.90
2023-02-03T06:39:58.809Z,14.73
2023-02-03T06:42:00.985Z,17.73
2023-02-03T06:44:03.170Z,10.43
2023-02-03T06:46:05.418Z,12.43
2023-02-03T06:48:07.850Z,13.20
2023-02-03T06:50:11.912Z,11.80
2023-02-03T06:52:15.565Z,12.10
2023-02-03T06:54:18.105Z,9.53
2023-02-03T06:56:20.215Z,14.00
2023-02-03T06:58:22.353Z,10.33
2023-02-03T07:00:24.772Z,11.10
2023-02-03T07:02:26.970Z,10.77
2023-02-03T07:04:30.252Z,11.77
2023-02-03T07:06:34.110Z,13.53
2023-02-03T07:08:36.291Z,10.57
2023-02-03T07:10:38.474Z,9.03
2023-02-03T07:12:40.654Z,9.73
2023-02-03T07:14:42.760Z,10.80
2023-02-03T07:16:44.934Z,11.77
2023-02-03T07:18:48.180Z,13.70
2023-02-03T07:20:51.415Z,10.30
2023-02-03T07:22:58.012Z,14.13
2023-02-03T07:25:00.086Z,9.93
2023-02-03T07:27:04.513Z,10.93
2023-02-03T07:29:06.832Z,10.53
2023-02-03T07:31:10.509Z,9.50
2023-02-03T07:33:12.635Z,8.40
2023-02-03T07:35:14.774Z,10.17
2023-02-03T07:37:16.727Z,10.33
2023-02-03T07:39:18.784Z,16.43
2023-02-03T07:41:21.174Z,9.70
2023-02-03T07:43:23.548Z,8.97
2023-02-03T07:45:25.889Z,8.60
2023-02-03T07:47:27.939Z,13.57
2023-02-03T07:49:30.055Z,9.03
2023-02-03T07:51:32.067Z,15.03
2023-02-03T07:53:34.084Z,9.57
2023-02-03T07:55:38.245Z,11.03
2023-02-03T07:57:43.543Z,11.17
2023-02-03T07:59:45.827Z,10.00
2023-02-03T08:01:47.963Z,9.20
2023-02-03T08:03:49.943Z,14.53
2023-02-03T08:05:53.443Z,9.60
2023-02-03T08:07:55.397Z,8.87
2023-02-03T08:09:57.344Z,7.13
2023-02-03T08:11:59.341Z,7.30
2023-02-03T08:14:01.308Z,6.53
2023-02-03T08:16:03.465Z,7.40
2023-02-03T08:18:05.513Z,10.83
2023-02-03T08:20:08.807Z,7.30
2023-02-03T08:22:16.026Z,7.03
2023-02-03T08:24:18.123Z,9.40
2023-02-03T08:26:20.245Z,5.07
2023-02-03T08:28:22.314Z,7.27
2023-02-03T08:30:24.574Z,5.10
2023-02-03T08:32:27.340Z,7.13
2023-02-03T08:34:29.613Z,5.93
2023-02-03T08:36:31.602Z,9.33
2023-02-03T08:38:33.592Z,8.90
2023-02-03T08:40:35.588Z,6.03
2023-02-03T08:42:37.707Z,10.10
2023-02-03T08:44:39.813Z,6.23
2023-02-03T08:46:44.193Z,5.73
2023-02-03T08:48:46.142Z,8.53
2023-02-03T08:50:52.869Z,7.30
2023-02-03T08:52:55.029Z,5.57
2023-02-03T08:54:57.213Z,6.90
2023-02-03T08:56:59.755Z,6.10
2023-02-03T08:59:01.736Z,6.57
2023-02-03T09:01:08.666Z,7.20
2023-02-03T09:03:10.735Z,6.57
2023-02-03T09:05:12.860Z,7.43
2023-02-03T09:07:15.536Z,5.00
2023-02-03T09:09:17.736Z,7.40
2023-02-03T09:11:19.749Z,5.33
2023-02-03T09:13:21.860Z,3.23
2023-02-03T09:15:23.852Z,4.53
2023-02-03T09:17:25.971Z,4.47
2023-02-03T09:19:28.155Z,3.10
2023-02-03T09:21:44.251Z,6.30
2023-02-03T09:23:49.044Z,3.33
2023-02-03T09:25:50.991Z,3.40
2023-02-03T09:27:52.944Z,3.40
2023-02-03T09:29:54.920Z,3.93
2023-02-03T09:31:57.130Z,5.27
2023-02-03T09:34:00.215Z,3.13
2023-02-03T09:36:02.928Z,2.97
2023-02-03T09:38:05.018Z,5.00
2023-02-03T09:40:07.476Z,3.20
2023-02-03T09:42:19.375Z,2.40
2023-02-03T09:45:09.047Z,2.83
2023-02-03T09:47:15.079Z,2.37
2023-02-03T09:49:27.651Z,2.43
2023-02-03T09:51:33.959Z,2.57
2023-02-03T09:53:45.270Z,2.20
2023-02-03T09:55:47.744Z,3.40
2023-02-03T09:57:58.647Z,2.83
2023-02-03T10:00:04.388Z,1.70
2023-02-03T10:02:09.966Z,2.40
2023-02-03T10:04:53.423Z,2.73
2023-02-03T10:07:05.674Z,2.43
2023-02-03T10:09:24.419Z,2.07
2023-02-03T10:11:46.056Z,2.77
2023-02-03T10:14:16.179Z,2.30
2023-02-03T10:16:28.798Z,2.70
2023-02-03T10:18:37.500Z,2.17
2023-02-03T10:20:42.013Z,2.17
2023-02-03T10:22:51.372Z,1.90
2023-02-03T10:24:58.051Z,2.47
2023-02-03T10:27:00.138Z,2.87
2023-02-03T10:29:07.102Z,1.80
2023-02-03T10:31:34.776Z,2.40
2023-02-03T10:33:36.869Z,3.10
2023-02-03T10:35:47.975Z,5.33
2023-02-03T10:37:51.817Z,2.30
2023-02-03T10:39:54.589Z,2.10
2023-02-03T10:41:56.935Z,2.53
2023-02-03T10:44:02.606Z,3.13
2023-02-03T10:46:04.815Z,2.30
2023-02-03T10:48:13.471Z,2.10
2023-02-03T10:50:18.841Z,3.20
2023-02-03T10:52:35.239Z,2.50
2023-02-03T10:54:38.302Z,2.80
2023-02-03T10:56:40.982Z,4.70
2023-02-03T10:58:49.679Z,2.43
2023-02-03T11:01:05.573Z,2.93
2023-02-03T11:03:29.032Z,2.37
2023-02-03T11:05:31.063Z,2.43
2023-02-03T11:07:33.051Z,6.23
2023-02-03T11:09:43.009Z,3.60
2023-02-03T11:11:45.043Z,6.63
2023-02-03T11:13:48.856Z,7.03
2023-02-03T11:16:17.666Z,4.80
2023-02-03T11:18:31.810Z,4.87
2023-02-03T11:20:36.512Z,3.90
2023-02-03T11:22:39.353Z,5.63
2023-02-03T11:24:42.318Z,2.63
2023-02-03T11:26:51.548Z,4.50
2023-02-03T11:28:56.208Z,6.03
2023-02-03T11:30:59.046Z,2.20
2023-02-03T11:33:02.189Z,3.27
2023-02-03T11:35:05.230Z,2.37
2023-02-03T11:37:28.102Z,3.17
2023-02-03T11:39:35.647Z,5.10
2023-02-03T11:41:39.913Z,8.17
2023-02-03T11:43:42.012Z,6.70
2023-02-03T11:45:52.168Z,6.27
2023-02-03T11:48:21.454Z,10.73
2023-02-03T11:50:32.296Z,14.77
2023-02-03T11:52:50.599Z,3.60
2023-02-03T11:55:04.221Z,3.57
2023-02-03T11:57:17.721Z,4.23
2023-02-03T11:59:29.055Z,8.83
2023-02-03T12:01:46.038Z,9.30
2023-02-03T12:03:54.249Z,6.60
2023-02-03T12:06:08.285Z,5.67
2023-02-03T12:08:15.270Z,4.03
2023-02-03T12:10:32.755Z,9.83
2023-02-03T12:13:07.116Z,12.90
2023-02-03T12:15:19.345Z,9.70
2023-02-03T12:17:27.215Z,8.60
2023-02-03T12:19:39.162Z,4.83
2023-02-03T12:21:47.288Z,9.17
2023-02-03T12:23:59.911Z,8.60
2023-02-03T12:26:16.018Z,6.50
2023-02-03T12:28:32.914Z,8.03
2023-02-03T12:30:41.548Z,8.73
2023-02-03T12:32:56.965Z,12.40
2023-02-03T12:35:27.246Z,9.23
2023-02-03T12:37:44.967Z,11.03
2023-02-03T12:39:52.045Z,11.40
2023-02-03T12:42:02.034Z,14.30
2023-02-03T12:44:20.921Z,7.83
2023-02-03T12:46:27.450Z,11.67
2023-02-03T12:48:45.603Z,14.57
2023-02-03T12:50:52.363Z,11.20
2023-02-03T12:52:58.569Z,21.43
2023-02-03T12:55:14.118Z,13.50
2023-02-03T12:57:17.617Z,16.83
2023-02-03T12:59:23.086Z,9.53
2023-02-03T13:01:43.773Z,9.40
2023-02-03T13:03:50.636Z,15.30
2023-02-03T13:06:15.289Z,14.87
2023-02-03T13:08:34.724Z,16.80
2023-02-03T13:11:15.737Z,18.00
2023-02-03T13:13:23.859Z,17.33
2023-02-03T13:15:30.764Z,12.80
2023-02-03T13:17:55.712Z,16.43
2023-02-03T13:20:04.296Z,15.30
2023-02-03T13:22:11.887Z,12.53
2023-02-03T13:24:13.967Z,12.70
2023-02-03T13:26:21.658Z,19.17
2023-02-03T13:28:38.281Z,12.60
2023-02-03T13:31:05.156Z,22.77
2023-02-03T13:33:25.636Z,18.10
2023-02-03T13:35:52.537Z,11.90
2023-02-03T13:38:09.591Z,18.73
2023-02-03T13:40:25.053Z,17.43
2023-02-03T13:42:32.955Z,14.77
2023-02-03T13:44:37.072Z,30.60
2023-02-03T13:46:39.649Z,15.03
2023-02-03T13:48:44.602Z,19.17
2023-02-03T13:50:48.195Z,21.83
2023-02-03T13:53:07.203Z,18.20
2023-02-03T13:55:35.895Z,6.50
2023-02-03T13:57:38.904Z,11.53
2023-02-03T13:59:43.635Z,16.40
2023-02-03T14:01:46.171Z,16.43
2023-02-03T14:03:48.631Z,19.30
2023-02-03T14:06:01.295Z,23.50
2023-02-03T14:08:26.279Z,24.10
2023-02-03T14:10:29.349Z,7.50
2023-02-03T14:12:35.785Z,15.90
2023-02-03T14:14:37.771Z,12.13
2023-02-03T14:16:41.123Z,14.63
2023-02-03T14:18:46.626Z,18.73
2023-02-03T14:20:51.246Z,15.77
2023-02-03T14:23:00.802Z,17.53
2023-02-03T14:25:06.296Z,19.43
2023-02-03T14:27:20.475Z,21.30
2023-02-03T14:29:27.777Z,21.30
2023-02-03T14:31:30.064Z,13.13
2023-02-03T14:33:54.005Z,15.67
2023-02-03T14:35:56.080Z,16.23
2023-02-03T14:38:01.333Z,12.93
2023-02-03T14:40:10.541Z,8.87
2023-02-03T14:42:31.760Z,9.43
2023-02-03T14:44:52.873Z,18.97
2023-02-03T14:47:04.096Z,18.07
2023-02-03T14:49:10.515Z,13.87
2023-02-03T14:51:22.416Z,16.43
2023-02-03T14:53:36.196Z,24.33
2023-02-03T14:56:02.954Z,14.63
2023-02-03T14:58:14.046Z,26.00
2023-02-03T15:00:25.332Z,21.73
2023-02-03T15:02:31.110Z,16.33
2023-02-03T15:04:33.192Z,13.43
2023-02-03T15:06:49.569Z,18.40
2023-02-03T15:08:53.088Z,16.33
2023-02-03T15:10:55.072Z,17.70
2023-02-03T15:12:58.402Z,25.47
2023-02-03T15:15:21.994Z,18.00
2023-02-03T15:17:27.278Z,14.97
2023-02-03T15:19:33.845Z,20.23
2023-02-03T15:21:41.748Z,10.87
2023-02-03T15:23:48.086Z,19.63
2023-02-03T15:26:02.378Z,14.30
2023-02-03T15:28:30.833Z,12.60
2023-02-03T15:30:32.949Z,17.27
2023-02-03T15:32:38.705Z,15.77
2023-02-03T15:34:46.347Z,14.47
2023-02-03T15:36:50.971Z,10.70
2023-02-03T15:38:58.559Z,11.07
2023-02-03T15:41:00.629Z,10.13
2023-02-03T15:43:19.562Z,17.97
2023-02-03T15:45:37.513Z,23.27
2023-02-03T15:47:42.051Z,19.60
2023-02-03T15:49:44.293Z,26.40
2023-02-03T15:51:50.177Z,15.60
2023-02-03T15:53:56.589Z,12.63
2023-02-03T15:56:04.356Z,17.43
2023-02-03T15:58:06.560Z,15.10
2023-02-03T16:00:12.739Z,11.40
2023-02-03T16:02:26.007Z,15.27
2023-02-03T16:04:28.248Z,14.83
2023-02-03T16:06:30.692Z,17.70
2023-02-03T16:08:43.313Z,18.43
2023-02-03T16:10:45.449Z,20.80
2023-02-03T16:12:47.547Z,17.30
2023-02-03T16:14:50.330Z,15.10
2023-02-03T16:17:04.254Z,15.33
2023-02-03T16:19:14.420Z,10.13
2023-02-03T16:21:49.678Z,19.40
2023-02-03T16:23:51.645Z,12.13
2023-02-03T16:26:16.752Z,16.93
2023-02-03T16:28:37.256Z,16.30
2023-02-03T16:30:57.996Z,20.73
2023-02-03T16:33:27.994Z,13.27
2023-02-03T16:35:48.865Z,13.23
2023-02-03T16:38:09.883Z,14.43
2023-02-03T16:40:32.482Z,9.50
2023-02-03T16:42:58.453Z,16.90
2023-02-03T16:45:19.220Z,23.60
2023-02-03T16:47:47.414Z,9.93
2023-02-03T16:50:07.766Z,13.30
2023-02-03T16:52:09.862Z,26.70
2023-02-03T16:54:13.849Z,19.90
2023-02-03T16:56:18.568Z,14.83
2023-02-03T16:58:21.628Z,12.80
2023-02-03T17:00:24.065Z,19.03
2023-02-03T17:02:26.192Z,20.67
2023-02-03T17:04:28.556Z,19.13
2023-02-03T17:06:30.665Z,13.27
2023-02-03T17:08:34.552Z,14.23
2023-02-03T17:10:38.497Z,14.43
2023-02-03T17:12:40.624Z,16.63
2023-02-03T17:14:42.736Z,15.83
2023-02-03T17:16:44.833Z,22.30
2023-02-03T17:18:47.142Z,11.50
2023-02-03T17:20:49.238Z,17.77
2023-02-03T17:22:54.763Z,14.50
2023-02-03T17:24:56.882Z,13.43
2023-02-03T17:26:59.219Z,20.50
2023-02-03T17:29:03.503Z,15.27
2023-02-03T17:31:07.180Z,13.40
2023-02-03T17:33:12.299Z,15.70
2023-02-03T17:35:14.409Z,19.00
2023-02-03T17:37:16.469Z,14.27
2023-02-03T17:53:36.777Z,19.57
2023-02-03T17:55:39.017Z,10.73
2023-02-03T17:57:41.121Z,13.07
2023-02-03T17:59:43.281Z,15.50
2023-02-03T18:01:46.823Z,19.63
2023-02-03T18:03:50.648Z,14.67
2023-02-03T18:05:52.921Z,11.90
2023-02-03T18:07:55.567Z,19.03
2023-02-03T18:09:57.586Z,18.53
2023-02-03T18:11:59.704Z,30.67
2023-02-03T18:14:01.977Z,11.03
2023-02-03T18:16:05.724Z,20.07
2023-02-03T18:18:08.644Z,21.03
2023-02-03T18:20:11.999Z,17.60
2023-02-03T18:22:14.577Z,16.70
2023-02-03T18:24:18.517Z,21.93
2023-02-03T18:26:20.834Z,27.33
2023-02-03T18:28:23.374Z,17.80
2023-02-03T18:30:25.595Z,12.60
2023-02-03T18:32:27.582Z,19.53
2023-02-03T18:34:29.673Z,17.43
2023-02-03T18:36:32.517Z,25.03
2023-02-03T18:38:36.100Z,20.60
2023-02-03T18:40:38.302Z,17.20
2023-02-03T18:42:40.344Z,12.53
2023-02-03T18:44:44.151Z,20.70
2023-02-03T18:46:46.128Z,25.03
2023-02-03T18:48:48.314Z,16.87
2023-02-03T18:50:50.474Z,25.13
2023-02-03T18:52:54.064Z,28.10
2023-02-03T18:54:56.144Z,19.20
2023-02-03T18:57:03.025Z,14.70
2023-02-03T18:59:07.259Z,15.70
2023-02-03T19:01:09.677Z,15.73
2023-02-03T19:03:11.879Z,18.83
2023-02-03T19:05:14.138Z,14.23
2023-02-03T19:07:16.289Z,16.70
2023-02-03T19:09:19.415Z,22.80
2023-02-03T19:11:22.383Z,12.03
2023-02-03T19:13:24.605Z,21.00
2023-02-03T19:15:26.874Z,13.30
2023-02-03T19:17:29.557Z,16.73
2023-02-03T19:19:33.073Z,11.13
2023-02-03T19:21:35.942Z,19.17
2023-02-03T19:23:39.285Z,10.40
2023-02-03T19:25:41.408Z,12.80
2023-02-03T19:27:44.305Z,10.60
2023-02-03T19:29:46.531Z,12.67
2023-02-03T19:31:48.857Z,18.60
2023-02-03T19:33:51.181Z,16.50
2023-02-03T19:35:53.343Z,16.17
2023-02-03T19:37:55.551Z,8.23
2023-02-03T19:39:57.724Z,17.40
2023-02-03T19:41:59.994Z,13.57
2023-02-03T19:44:05.767Z,15.97
2023-02-03T19:46:08.676Z,13.13
2023-02-03T19:48:10.924Z,14.67
2023-02-03T19:50:13.249Z,10.77
2023-02-03T19:52:15.693Z,14.33
2023-02-03T19:54:18.081Z,24.67
2023-02-03T19:56:20.601Z,17.10
2023-02-03T19:58:24.133Z,16.53
2023-02-03T20:00:28.918Z,14.43
2023-02-03T20:02:31.232Z,16.93
2023-02-03T20:04:35.476Z,14.17
2023-02-03T20:06:37.689Z,15.30
2023-02-03T20:08:39.891Z,14.67
2023-02-03T20:10:44.673Z,13.33
2023-02-03T20:12:46.958Z,28.30
2023-02-03T20:14:49.289Z,16.43
2023-02-03T20:16:51.545Z,20.43
2023-02-03T20:18:53.821Z,10.90
2023-02-03T20:20:57.080Z,7.23
2023-02-03T20:22:59.445Z,14.50
2023-02-03T20:25:01.722Z,7.73
2023-02-03T20:27:04.102Z,14.97
2023-02-03T20:29:06.793Z,15.73
2023-02-03T20:31:09.264Z,19.53
2023-02-03T20:33:12.466Z,18.13
2023-02-03T20:35:14.658Z,18.87
2023-02-03T20:37:16.841Z,13.30
2023-02-03T20:39:20.575Z,16.67
2023-02-03T20:41:22.834Z,16.73
2023-02-03T20:43:27.378Z,15.63
2023-02-03T20:45:30.003Z,17.13
2023-02-03T20:47:32.714Z,14.30
2023-02-03T20:49:34.985Z,17.83
2023-02-03T20:51:37.288Z,21.57
2023-02-03T20:53:40.082Z,20.97
2023-02-03T20:55:42.906Z,14.60
2023-02-03T20:57:47.112Z,13.67
2023-02-03T20:59:49.403Z,13.17
2023-02-03T21:01:52.034Z,17.63
2023-02-03T21:04:12.724Z,15.03
2023-02-03T21:06:17.205Z,27.27
2023-02-03T21:08:20.493Z,19.67
2023-02-03T21:10:24.627Z,15.27
2023-02-03T21:12:29.411Z,22.77
2023-02-03T21:14:38.533Z,25.63
2023-02-03T21:16:41.028Z,17.00
2023-02-03T21:18:50.455Z,26.23
2023-02-03T21:20:52.760Z,24.63
2023-02-03T21:22:56.032Z,18.33
2023-02-03T21:25:00.091Z,19.03
2023-02-03T21:27:02.529Z,22.00
2023-02-03T21:29:04.664Z,13.73
2023-02-03T21:31:19.584Z,21.17
2023-02-03T21:33:41.902Z,13.07
2023-02-03T21:35:44.162Z,18.90
2023-02-03T21:37:46.384Z,14.30
2023-02-03T21:39:49.344Z,13.30
2023-02-03T21:41:52.272Z,13.77
2023-02-03T21:43:57.143Z,16.10
2023-02-03T21:45:59.372Z,13.90
2023-02-03T21:48:17.964Z,16.13
2023-02-03T21:50:34.697Z,8.80
2023-02-03T21:52:37.064Z,10.93
2023-02-03T21:54:41.893Z,13.67
2023-02-03T21:56:45.710Z,8.47
2023-02-03T21:58:50.737Z,17.33
2023-02-03T22:00:55.832Z,14.10
2023-02-03T22:03:00.192Z,9.20
2023-02-03T22:05:04.315Z,6.17
2023-02-03T22:07:14.589Z,12.00
2023-02-03T22:09:18.680Z,19.63
2023-02-03T22:11:22.492Z,7.43
2023-02-03T22:13:25.562Z,14.20
2023-02-03T22:15:27.770Z,7.60
2023-02-03T22:17:29.978Z,10.50
2023-02-03T22:19:33.786Z,16.70
2023-02-03T22:21:39.287Z,8.03
2023-02-03T22:23:42.035Z,8.80
2023-02-03T22:25:44.248Z,6.10
2023-02-03T22:27:47.307Z,9.90
2023-02-03T22:29:49.613Z,17.63
2023-02-03T22:31:51.870Z,12.50
2023-02-03T22:33:54.209Z,10.67
2023-02-03T22:35:56.404Z,7.70
2023-02-03T22:37:58.928Z,14.27
2023-02-03T22:40:01.134Z,5.27
2023-02-03T22:42:03.700Z,6.97
2023-02-03T22:44:07.774Z,5.33
2023-02-03T22:46:21.838Z,7.00
2023-02-03T22:48:24.088Z,8.23
2023-02-03T22:50:35.374Z,8.40
2023-02-03T22:52:38.442Z,8.13
2023-02-03T22:54:41.644Z,8.60
2023-02-03T22:56:43.821Z,16.23
2023-02-03T22:58:46.254Z,9.23
2023-02-03T23:00:48.588Z,5.93
2023-02-03T23:02:51.241Z,3.30
2023-02-03T23:04:53.539Z,2.60
2023-02-03T23:06:55.763Z,3.47
2023-02-03T23:08:57.970Z,3.50
2023-02-03T23:11:00.225Z,5.67
2023-02-03T23:13:07.212Z,5.93
2023-02-03T23:15:14.304Z,3.07
2023-02-03T23:17:17.205Z,3.23
2023-02-03T23:19:21.424Z,7.80
2023-02-03T23:21:23.704Z,6.63
2023-02-03T23:23:26.064Z,3.90
2023-02-03T23:25:28.230Z,2.97
2023-02-03T23:27:30.650Z,3.70
2023-02-03T23:29:33.195Z,10.30
2023-02-03T23:31:35.728Z,3.10
2023-02-03T23:33:38.355Z,4.83
2023-02-03T23:35:46.420Z,4.63
2023-02-03T23:37:48.693Z,4.00
2023-02-03T23:39:51.002Z,2.83
2023-02-03T23:41:53.176Z,3.20
2023-02-03T23:43:55.354Z,3.40
2023-02-03T23:45:57.520Z,3.97
2023-02-03T23:47:59.858Z,2.30
2023-02-03T23:50:02.068Z,3.53
2023-02-03T23:52:04.555Z,4.00
2023-02-03T23:54:07.034Z,4.33
2023-02-03T23:56:09.250Z,4.10
2023-02-03T23:58:11.843Z,3.47
